sensor_id;sensor_type;location;lat;lon;timestamp;P1;P2;P0
47934;PMS5003;33704;43.592;-79.628;2024-03-02T00:00:22;64.0;56.0;
47934;PMS5003;33704;43.592;-79.628;2024-03-02T00:00:54;13.0;12.0;
47934;PMS5003;33704;43.592;-79.628;2024-03-02T00:01:26;14.0;13.0;
47934;PMS5003;33704;43.592;-79.628;2024-03-02T00:01:58;10.0;10.0;
47934;PMS5003;33704;43.592;-79.628;2024-03-02T00:02:30;10.0;10.0;
47934;PMS5003;33704;43.592;-79.628;2024-03-02T00:03:03;15.0;14.0;
47934;PMS5003;33704;43.592;-79.628;2024-03-02T00:03:37;12.0;12.0;
47934;PMS5003;33704;43.592;-79.628;2024-03-02T00:04:09;14.0;13.0;
47934;PMS5003;33704;43.592;-79.628;2024-03-02T00:04:44;12.0;10.0;
47934;PMS5003;33704;43.592;-79.628;2024-03-02T00:05:16;12.0;12.0;
47934;PMS5003;33704;43.592;-79.628;2024-03-02T00:05:50;34.0;29.0;
47934;PMS5003;33704;43.592;-79.628;2024-03-02T00:06:23;19.0;16.0;
47934;PMS5003;33704;43.592;-79.628;2024-03-02T00:06:55;15.0;14.0;
47934;PMS5003;33704;43.592;-79.628;2024-03-02T00:07:27;9.0;9.0;
47934;PMS5003;33704;43.592;-79.628;2024-03-02T00:07:59;10.0;10.0;
47934;PMS5003;33704;43.592;-79.628;2024-03-02T00:08:32;12.0;11.0;
47934;PMS5003;33704;43.592;-79.628;2024-03-02T00:09:04;15.0;13.0;
47934;PMS5003;33704;43.592;-79.628;2024-03-02T00:09:36;13.0;13.0;
47934;PMS5003;33704;43.592;-79.628;2024-03-02T00:10:09;9.0;9.0;
47934;PMS5003;33704;43.592;-79.628;2024-03-02T00:10:43;12.0;10.0;
47934;PMS5003;33704;43.592;-79.628;2024-03-02T00:11:15;9.0;8.0;
47934;PMS5003;33704;43.592;-79.628;2024-03-02T00:11:48;13.0;10.0;
47934;PMS5003;33704;43.592;-79.628;2024-03-02T00:12:20;9.0;9.0;
47934;PMS5003;33704;43.592;-79.628;2024-03-02T00:12:53;10.0;9.0;
47934;PMS5003;33704;43.592;-79.628;2024-03-02T00:13:25;9.0;7.0;
47934;PMS5003;33704;43.592;-79.628;2024-03-02T00:13:57;10.0;10.0;
47934;PMS5003;33704;43.592;-79.628;2024-03-02T00:14:29;11.0;9.0;
47934;PMS5003;33704;43.592;-79.628;2024-03-02T00:15:04;12.0;10.0;
47934;PMS5003;33704;43.592;-79.628;2024-03-02T00:15:56;11.0;10.0;
47934;PMS5003;33704;43.592;-79.628;2024-03-02T00:16:29;9.0;8.0;
47934;PMS5003;33704;43.592;-79.628;2024-03-02T00:17:03;9.0;9.0;
47934;PMS5003;33704;43.592;-79.628;2024-03-02T00:17:35;9.0;8.0;
47934;PMS5003;33704;43.592;-79.628;2024-03-02T00:18:07;8.0;8.0;
47934;PMS5003;33704;43.592;-79.628;2024-03-02T00:18:42;12.0;9.0;
47934;PMS5003;33704;43.592;-79.628;2024-03-02T00:19:14;9.0;8.0;
47934;PMS5003;33704;43.592;-79.628;2024-03-02T00:19:45;12.0;12.0;
47934;PMS5003;33704;43.592;-79.628;2024-03-02T00:20:17;8.0;8.0;
47934;PMS5003;33704;43.592;-79.628;2024-03-02T00:20:53;9.0;9.0;
47934;PMS5003;33704;43.592;-79.628;2024-03-02T00:21:25;7.0;7.0;
47934;PMS5003;33704;43.592;-79.628;2024-03-02T00:22:00;10.0;8.0;
47934;PMS5003;33704;43.592;-79.628;2024-03-02T00:22:35;9.0;8.0;
47934;PMS5003;33704;43.592;-79.628;2024-03-02T00:23:07;11.0;8.0;
47934;PMS5003;33704;43.592;-79.628;2024-03-02T00:23:40;9.0;9.0;
47934;PMS5003;33704;43.592;-79.628;2024-03-02T00:24:17;9.0;9.0;
47934;PMS5003;33704;43.592;-79.628;2024-03-02T00:24:52;9.0;9.0;
47934;PMS5003;33704;43.592;-79.628;2024-03-02T00:25:24;8.0;8.0;
47934;PMS5003;33704;43.592;-79.628;2024-03-02T00:25:56;10.0;9.0;
47934;PMS5003;33704;43.592;-79.628;2024-03-02T00:26:29;9.0;8.0;
47934;PMS5003;33704;43.592;-79.628;2024-03-02T00:27:03;10.0;8.0;
47934;PMS5003;33704;43.592;-79.628;2024-03-02T00:27:36;12.0;9.0;
47934;PMS5003;33704;43.592;-79.628;2024-03-02T00:28:11;10.0;9.0;
47934;PMS5003;33704;43.592;-79.628;2024-03-02T00:28:48;10.0;8.0;
47934;PMS5003;33704;43.592;-79.628;2024-03-02T00:29:20;9.0;9.0;
47934;PMS5003;33704;43.592;-79.628;2024-03-02T00:29:52;7.0;7.0;
47934;PMS5003;33704;43.592;-79.628;2024-03-02T00:30:35;9.0;9.0;
47934;PMS5003;33704;43.592;-79.628;2024-03-02T00:31:22;10.0;8.0;
47934;PMS5003;33704;43.592;-79.628;2024-03-02T00:31:54;11.0;11.0;
47934;PMS5003;33704;43.592;-79.628;2024-03-02T00:32:26;9.0;8.0;
47934;PMS5003;33704;43.592;-79.628;2024-03-02T00:32:58;8.0;7.0;
47934;PMS5003;33704;43.592;-79.628;2024-03-02T00:33:31;8.0;6.0;
47934;PMS5003;33704;43.592;-79.628;2024-03-02T00:34:04;9.0;8.0;
47934;PMS5003;33704;43.592;-79.628;2024-03-02T00:34:37;7.0;7.0;
47934;PMS5003;33704;43.592;-79.628;2024-03-02T00:35:08;8.0;8.0;
47934;PMS5003;33704;43.592;-79.628;2024-03-02T00:35:40;8.0;8.0;
47934;PMS5003;33704;43.592;-79.628;2024-03-02T00:36:16;8.0;8.0;
47934;PMS5003;33704;43.592;-79.628;2024-03-02T00:36:56;7.0;7.0;
47934;PMS5003;33704;43.592;-79.628;2024-03-02T00:37:29;6.0;6.0;
47934;PMS5003;33704;43.592;-79.628;2024-03-02T00:38:04;5.0;5.0;
47934;PMS5003;33704;43.592;-79.628;2024-03-02T00:38:41;7.0;7.0;
47934;PMS5003;33704;43.592;-79.628;2024-03-02T00:39:16;9.0;7.0;
47934;PMS5003;33704;43.592;-79.628;2024-03-02T00:39:49;11.0;9.0;
47934;PMS5003;33704;43.592;-79.628;2024-03-02T00:40:21;5.0;5.0;
47934;PMS5003;33704;43.592;-79.628;2024-03-02T00:41:02;8.0;8.0;
47934;PMS5003;33704;43.592;-79.628;2024-03-02T00:41:36;6.0;6.0;
47934;PMS5003;33704;43.592;-79.628;2024-03-02T00:42:13;6.0;6.0;
47934;PMS5003;33704;43.592;-79.628;2024-03-02T00:42:45;10.0;6.0;
47934;PMS5003;33704;43.592;-79.628;2024-03-02T00:43:52;8.0;8.0;
47934;PMS5003;33704;43.592;-79.628;2024-03-02T00:44:29;9.0;9.0;
47934;PMS5003;33704;43.592;-79.628;2024-03-02T00:45:04;9.0;9.0;
47934;PMS5003;33704;43.592;-79.628;2024-03-02T00:45:39;10.0;8.0;
47934;PMS5003;33704;43.592;-79.628;2024-03-02T00:46:13;9.0;9.0;
47934;PMS5003;33704;43.592;-79.628;2024-03-02T00:46:48;8.0;7.0;
47934;PMS5003;33704;43.592;-79.628;2024-03-02T00:47:19;8.0;8.0;
47934;PMS5003;33704;43.592;-79.628;2024-03-02T00:47:53;8.0;8.0;
47934;PMS5003;33704;43.592;-79.628;2024-03-02T00:48:25;7.0;6.0;
47934;PMS5003;33704;43.592;-79.628;2024-03-02T00:48:57;8.0;7.0;
47934;PMS5003;33704;43.592;-79.628;2024-03-02T00:49:30;7.0;7.0;
47934;PMS5003;33704;43.592;-79.628;2024-03-02T00:50:05;7.0;7.0;
47934;PMS5003;33704;43.592;-79.628;2024-03-02T00:50:37;8.0;7.0;
47934;PMS5003;33704;43.592;-79.628;2024-03-02T00:51:09;9.0;6.0;
47934;PMS5003;33704;43.592;-79.628;2024-03-02T00:51:44;5.0;5.0;
47934;PMS5003;33704;43.592;-79.628;2024-03-02T00:52:19;7.0;6.0;
47934;PMS5003;33704;43.592;-79.628;2024-03-02T00:52:52;5.0;5.0;
47934;PMS5003;33704;43.592;-79.628;2024-03-02T00:53:25;7.0;7.0;
47934;PMS5003;33704;43.592;-79.628;2024-03-02T00:53:58;8.0;8.0;
47934;PMS5003;33704;43.592;-79.628;2024-03-02T00:54:32;6.0;5.0;
47934;PMS5003;33704;43.592;-79.628;2024-03-02T00:55:04;6.0;6.0;
47934;PMS5003;33704;43.592;-79.628;2024-03-02T00:55:37;19.0;18.0;
47934;PMS5003;33704;43.592;-79.628;2024-03-02T00:56:17;9.0;9.0;
47934;PMS5003;33704;43.592;-79.628;2024-03-02T00:56:50;8.0;7.0;
47934;PMS5003;33704;43.592;-79.628;2024-03-02T00:57:23;7.0;6.0;
47934;PMS5003;33704;43.592;-79.628;2024-03-02T00:57:55;6.0;6.0;
47934;PMS5003;33704;43.592;-79.628;2024-03-02T00:58:27;6.0;6.0;
47934;PMS5003;33704;43.592;-79.628;2024-03-02T00:58:59;8.0;7.0;
47934;PMS5003;33704;43.592;-79.628;2024-03-02T00:59:31;8.0;8.0;
47934;PMS5003;33704;43.592;-79.628;2024-03-02T01:00:04;9.0;7.0;
47934;PMS5003;33704;43.592;-79.628;2024-03-02T01:00:38;10.0;10.0;
47934;PMS5003;33704;43.592;-79.628;2024-03-02T01:01:10;6.0;6.0;
47934;PMS5003;33704;43.592;-79.628;2024-03-02T01:01:43;5.0;5.0;
47934;PMS5003;33704;43.592;-79.628;2024-03-02T01:02:15;8.0;8.0;
47934;PMS5003;33704;43.592;-79.628;2024-03-02T01:02:47;9.0;8.0;
47934;PMS5003;33704;43.592;-79.628;2024-03-02T01:03:19;8.0;8.0;
47934;PMS5003;33704;43.592;-79.628;2024-03-02T01:03:52;8.0;7.0;
47934;PMS5003;33704;43.592;-79.628;2024-03-02T01:04:24;5.0;5.0;
47934;PMS5003;33704;43.592;-79.628;2024-03-02T01:04:56;6.0;5.0;
47934;PMS5003;33704;43.592;-79.628;2024-03-02T01:05:28;7.0;7.0;
47934;PMS5003;33704;43.592;-79.628;2024-03-02T01:06:00;6.0;6.0;
47934;PMS5003;33704;43.592;-79.628;2024-03-02T01:06:34;6.0;6.0;
47934;PMS5003;33704;43.592;-79.628;2024-03-02T01:07:06;8.0;7.0;
47934;PMS5003;33704;43.592;-79.628;2024-03-02T01:07:38;6.0;6.0;
47934;PMS5003;33704;43.592;-79.628;2024-03-02T01:08:10;6.0;6.0;
47934;PMS5003;33704;43.592;-79.628;2024-03-02T01:08:43;7.0;6.0;
47934;PMS5003;33704;43.592;-79.628;2024-03-02T01:09:14;8.0;8.0;
47934;PMS5003;33704;43.592;-79.628;2024-03-02T01:09:46;8.0;7.0;
47934;PMS5003;33704;43.592;-79.628;2024-03-02T01:10:18;6.0;6.0;
47934;PMS5003;33704;43.592;-79.628;2024-03-02T01:10:50;7.0;7.0;
47934;PMS5003;33704;43.592;-79.628;2024-03-02T01:11:27;7.0;6.0;
47934;PMS5003;33704;43.592;-79.628;2024-03-02T01:11:59;5.0;5.0;
47934;PMS5003;33704;43.592;-79.628;2024-03-02T01:12:31;6.0;6.0;
47934;PMS5003;33704;43.592;-79.628;2024-03-02T01:13:04;6.0;5.0;
47934;PMS5003;33704;43.592;-79.628;2024-03-02T01:13:36;6.0;6.0;
47934;PMS5003;33704;43.592;-79.628;2024-03-02T01:14:08;6.0;6.0;
47934;PMS5003;33704;43.592;-79.628;2024-03-02T01:14:40;5.0;5.0;
47934;PMS5003;33704;43.592;-79.628;2024-03-02T01:15:13;5.0;5.0;
47934;PMS5003;33704;43.592;-79.628;2024-03-02T01:15:45;7.0;7.0;
47934;PMS5003;33704;43.592;-79.628;2024-03-02T01:16:22;4.0;4.0;
47934;PMS5003;33704;43.592;-79.628;2024-03-02T01:16:54;5.0;5.0;
47934;PMS5003;33704;43.592;-79.628;2024-03-02T01:17:26;5.0;5.0;
47934;PMS5003;33704;43.592;-79.628;2024-03-02T01:18:07;4.0;4.0;
47934;PMS5003;33704;43.592;-79.628;2024-03-02T01:18:39;10.0;7.0;
47934;PMS5003;33704;43.592;-79.628;2024-03-02T01:19:12;8.0;5.0;
47934;PMS5003;33704;43.592;-79.628;2024-03-02T01:19:44;9.0;8.0;
47934;PMS5003;33704;43.592;-79.628;2024-03-02T01:20:16;4.0;4.0;
47934;PMS5003;33704;43.592;-79.628;2024-03-02T01:20:48;6.0;6.0;
47934;PMS5003;33704;43.592;-79.628;2024-03-02T01:21:20;7.0;7.0;
47934;PMS5003;33704;43.592;-79.628;2024-03-02T01:21:53;9.0;6.0;
47934;PMS5003;33704;43.592;-79.628;2024-03-02T01:22:25;6.0;6.0;
47934;PMS5003;33704;43.592;-79.628;2024-03-02T01:22:57;9.0;8.0;
47934;PMS5003;33704;43.592;-79.628;2024-03-02T01:23:28;6.0;6.0;
47934;PMS5003;33704;43.592;-79.628;2024-03-02T01:24:03;7.0;4.0;
47934;PMS5003;33704;43.592;-79.628;2024-03-02T01:24:35;6.0;5.0;
47934;PMS5003;33704;43.592;-79.628;2024-03-02T01:25:08;7.0;7.0;
47934;PMS5003;33704;43.592;-79.628;2024-03-02T01:25:40;5.0;5.0;
47934;PMS5003;33704;43.592;-79.628;2024-03-02T01:26:13;5.0;5.0;
47934;PMS5003;33704;43.592;-79.628;2024-03-02T01:26:44;8.0;8.0;
47934;PMS5003;33704;43.592;-79.628;2024-03-02T01:27:16;7.0;6.0;
47934;PMS5003;33704;43.592;-79.628;2024-03-02T01:27:48;7.0;6.0;
47934;PMS5003;33704;43.592;-79.628;2024-03-02T01:28:21;6.0;6.0;
47934;PMS5003;33704;43.592;-79.628;2024-03-02T01:29:35;6.0;6.0;
47934;PMS5003;33704;43.592;-79.628;2024-03-02T01:30:08;5.0;5.0;
47934;PMS5003;33704;43.592;-79.628;2024-03-02T01:30:44;6.0;6.0;
47934;PMS5003;33704;43.592;-79.628;2024-03-02T01:31:16;6.0;6.0;
47934;PMS5003;33704;43.592;-79.628;2024-03-02T01:31:48;5.0;5.0;
47934;PMS5003;33704;43.592;-79.628;2024-03-02T01:32:20;7.0;6.0;
47934;PMS5003;33704;43.592;-79.628;2024-03-02T01:32:52;5.0;5.0;
47934;PMS5003;33704;43.592;-79.628;2024-03-02T01:33:24;7.0;7.0;
47934;PMS5003;33704;43.592;-79.628;2024-03-02T01:33:56;5.0;5.0;
47934;PMS5003;33704;43.592;-79.628;2024-03-02T01:34:28;5.0;5.0;
47934;PMS5003;33704;43.592;-79.628;2024-03-02T01:35:00;3.0;3.0;
47934;PMS5003;33704;43.592;-79.628;2024-03-02T01:35:33;5.0;5.0;
47934;PMS5003;33704;43.592;-79.628;2024-03-02T01:36:05;6.0;6.0;
47934;PMS5003;33704;43.592;-79.628;2024-03-02T01:36:38;7.0;6.0;
47934;PMS5003;33704;43.592;-79.628;2024-03-02T01:37:10;7.0;7.0;
47934;PMS5003;33704;43.592;-79.628;2024-03-02T01:37:43;5.0;5.0;
47934;PMS5003;33704;43.592;-79.628;2024-03-02T01:38:15;5.0;5.0;
47934;PMS5003;33704;43.592;-79.628;2024-03-02T01:38:47;8.0;7.0;
47934;PMS5003;33704;43.592;-79.628;2024-03-02T01:39:19;4.0;4.0;
47934;PMS5003;33704;43.592;-79.628;2024-03-02T01:39:52;5.0;5.0;
47934;PMS5003;33704;43.592;-79.628;2024-03-02T01:40:28;8.0;7.0;
47934;PMS5003;33704;43.592;-79.628;2024-03-02T01:41:02;4.0;3.0;
47934;PMS5003;33704;43.592;-79.628;2024-03-02T01:41:34;7.0;5.0;
47934;PMS5003;33704;43.592;-79.628;2024-03-02T01:42:06;6.0;6.0;
47934;PMS5003;33704;43.592;-79.628;2024-03-02T01:42:38;6.0;6.0;
47934;PMS5003;33704;43.592;-79.628;2024-03-02T01:43:10;4.0;4.0;
47934;PMS5003;33704;43.592;-79.628;2024-03-02T01:43:43;3.0;3.0;
47934;PMS5003;33704;43.592;-79.628;2024-03-02T01:44:15;6.0;6.0;
47934;PMS5003;33704;43.592;-79.628;2024-03-02T01:44:46;6.0;6.0;
47934;PMS5003;33704;43.592;-79.628;2024-03-02T01:45:18;8.0;5.0;
47934;PMS5003;33704;43.592;-79.628;2024-03-02T01:45:52;6.0;5.0;
47934;PMS5003;33704;43.592;-79.628;2024-03-02T01:46:24;5.0;5.0;
47934;PMS5003;33704;43.592;-79.628;2024-03-02T01:46:55;5.0;5.0;
47934;PMS5003;33704;43.592;-79.628;2024-03-02T01:47:27;3.0;3.0;
47934;PMS5003;33704;43.592;-79.628;2024-03-02T01:47:59;5.0;3.0;
47934;PMS5003;33704;43.592;-79.628;2024-03-02T01:48:31;5.0;5.0;
47934;PMS5003;33704;43.592;-79.628;2024-03-02T01:49:04;6.0;6.0;
47934;PMS5003;33704;43.592;-79.628;2024-03-02T01:49:36;5.0;5.0;
47934;PMS5003;33704;43.592;-79.628;2024-03-02T01:50:08;5.0;5.0;
47934;PMS5003;33704;43.592;-79.628;2024-03-02T01:50:42;6.0;6.0;
47934;PMS5003;33704;43.592;-79.628;2024-03-02T01:51:14;3.0;3.0;
47934;PMS5003;33704;43.592;-79.628;2024-03-02T01:51:46;7.0;7.0;
47934;PMS5003;33704;43.592;-79.628;2024-03-02T01:52:18;5.0;5.0;
47934;PMS5003;33704;43.592;-79.628;2024-03-02T01:52:50;5.0;5.0;
47934;PMS5003;33704;43.592;-79.628;2024-03-02T01:53:23;5.0;5.0;
47934;PMS5003;33704;43.592;-79.628;2024-03-02T01:53:55;3.0;3.0;
47934;PMS5003;33704;43.592;-79.628;2024-03-02T01:54:28;5.0;5.0;
47934;PMS5003;33704;43.592;-79.628;2024-03-02T01:54:59;6.0;6.0;
47934;PMS5003;33704;43.592;-79.628;2024-03-02T01:55:34;3.0;3.0;
47934;PMS5003;33704;43.592;-79.628;2024-03-02T01:56:06;6.0;5.0;
47934;PMS5003;33704;43.592;-79.628;2024-03-02T01:56:38;4.0;3.0;
47934;PMS5003;33704;43.592;-79.628;2024-03-02T01:57:11;6.0;6.0;
47934;PMS5003;33704;43.592;-79.628;2024-03-02T01:57:44;4.0;4.0;
47934;PMS5003;33704;43.592;-79.628;2024-03-02T01:58:16;4.0;4.0;
47934;PMS5003;33704;43.592;-79.628;2024-03-02T01:58:48;4.0;4.0;
47934;PMS5003;33704;43.592;-79.628;2024-03-02T01:59:20;3.0;3.0;
47934;PMS5003;33704;43.592;-79.628;2024-03-02T01:59:52;6.0;6.0;
47934;PMS5003;33704;43.592;-79.628;2024-03-02T02:00:25;5.0;4.0;
47934;PMS5003;33704;43.592;-79.628;2024-03-02T02:00:57;4.0;4.0;
47934;PMS5003;33704;43.592;-79.628;2024-03-02T02:01:28;4.0;4.0;
47934;PMS5003;33704;43.592;-79.628;2024-03-02T02:02:02;5.0;4.0;
47934;PMS5003;33704;43.592;-79.628;2024-03-02T02:02:35;4.0;4.0;
47934;PMS5003;33704;43.592;-79.628;2024-03-02T02:03:06;5.0;4.0;
47934;PMS5003;33704;43.592;-79.628;2024-03-02T02:03:38;6.0;6.0;
47934;PMS5003;33704;43.592;-79.628;2024-03-02T02:04:10;4.0;4.0;
47934;PMS5003;33704;43.592;-79.628;2024-03-02T02:04:42;5.0;4.0;
47934;PMS5003;33704;43.592;-79.628;2024-03-02T02:05:14;4.0;4.0;
47934;PMS5003;33704;43.592;-79.628;2024-03-02T02:05:47;4.0;4.0;
47934;PMS5003;33704;43.592;-79.628;2024-03-02T02:06:18;5.0;5.0;
47934;PMS5003;33704;43.592;-79.628;2024-03-02T02:06:50;6.0;4.0;
47934;PMS5003;33704;43.592;-79.628;2024-03-02T02:07:23;6.0;6.0;
47934;PMS5003;33704;43.592;-79.628;2024-03-02T02:07:54;4.0;4.0;
47934;PMS5003;33704;43.592;-79.628;2024-03-02T02:08:26;7.0;5.0;
47934;PMS5003;33704;43.592;-79.628;2024-03-02T02:08:59;6.0;4.0;
47934;PMS5003;33704;43.592;-79.628;2024-03-02T02:09:32;5.0;4.0;
47934;PMS5003;33704;43.592;-79.628;2024-03-02T02:10:04;4.0;4.0;
47934;PMS5003;33704;43.592;-79.628;2024-03-02T02:10:37;5.0;5.0;
47934;PMS5003;33704;43.592;-79.628;2024-03-02T02:11:09;4.0;4.0;
47934;PMS5003;33704;43.592;-79.628;2024-03-02T02:11:42;6.0;6.0;
47934;PMS5003;33704;43.592;-79.628;2024-03-02T02:12:14;3.0;3.0;
47934;PMS5003;33704;43.592;-79.628;2024-03-02T02:12:46;3.0;3.0;
47934;PMS5003;33704;43.592;-79.628;2024-03-02T02:13:18;2.0;2.0;
47934;PMS5003;33704;43.592;-79.628;2024-03-02T02:13:49;3.0;3.0;
47934;PMS5003;33704;43.592;-79.628;2024-03-02T02:14:22;5.0;5.0;
47934;PMS5003;33704;43.592;-79.628;2024-03-02T02:14:54;4.0;4.0;
47934;PMS5003;33704;43.592;-79.628;2024-03-02T02:15:27;4.0;4.0;
47934;PMS5003;33704;43.592;-79.628;2024-03-02T02:16:04;4.0;4.0;
47934;PMS5003;33704;43.592;-79.628;2024-03-02T02:16:36;4.0;4.0;
47934;PMS5003;33704;43.592;-79.628;2024-03-02T02:17:08;5.0;5.0;
47934;PMS5003;33704;43.592;-79.628;2024-03-02T02:17:40;5.0;5.0;
47934;PMS5003;33704;43.592;-79.628;2024-03-02T02:18:12;4.0;4.0;
47934;PMS5003;33704;43.592;-79.628;2024-03-02T02:18:44;3.0;3.0;
47934;PMS5003;33704;43.592;-79.628;2024-03-02T02:19:16;3.0;3.0;
47934;PMS5003;33704;43.592;-79.628;2024-03-02T02:19:48;3.0;3.0;
47934;PMS5003;33704;43.592;-79.628;2024-03-02T02:20:20;4.0;4.0;
47934;PMS5003;33704;43.592;-79.628;2024-03-02T02:20:53;5.0;5.0;
47934;PMS5003;33704;43.592;-79.628;2024-03-02T02:21:25;5.0;3.0;
47934;PMS5003;33704;43.592;-79.628;2024-03-02T02:21:56;6.0;6.0;
47934;PMS5003;33704;43.592;-79.628;2024-03-02T02:22:28;4.0;4.0;
47934;PMS5003;33704;43.592;-79.628;2024-03-02T02:23:00;3.0;3.0;
47934;PMS5003;33704;43.592;-79.628;2024-03-02T02:23:34;3.0;3.0;
47934;PMS5003;33704;43.592;-79.628;2024-03-02T02:24:06;4.0;4.0;
47934;PMS5003;33704;43.592;-79.628;2024-03-02T02:24:39;4.0;4.0;
47934;PMS5003;33704;43.592;-79.628;2024-03-02T02:25:12;2.0;2.0;
47934;PMS5003;33704;43.592;-79.628;2024-03-02T02:25:44;3.0;3.0;
47934;PMS5003;33704;43.592;-79.628;2024-03-02T02:26:16;4.0;3.0;
47934;PMS5003;33704;43.592;-79.628;2024-03-02T02:26:47;5.0;4.0;
47934;PMS5003;33704;43.592;-79.628;2024-03-02T02:27:19;4.0;4.0;
47934;PMS5003;33704;43.592;-79.628;2024-03-02T02:27:52;3.0;3.0;
47934;PMS5003;33704;43.592;-79.628;2024-03-02T02:28:24;2.0;2.0;
47934;PMS5003;33704;43.592;-79.628;2024-03-02T02:28:56;4.0;4.0;
47934;PMS5003;33704;43.592;-79.628;2024-03-02T02:29:28;6.0;5.0;
47934;PMS5003;33704;43.592;-79.628;2024-03-02T02:30:00;2.0;2.0;
47934;PMS5003;33704;43.592;-79.628;2024-03-02T02:30:35;4.0;4.0;
47934;PMS5003;33704;43.592;-79.628;2024-03-02T02:31:07;4.0;4.0;
47934;PMS5003;33704;43.592;-79.628;2024-03-02T02:31:39;4.0;4.0;
47934;PMS5003;33704;43.592;-79.628;2024-03-02T02:32:12;3.0;3.0;
47934;PMS5003;33704;43.592;-79.628;2024-03-02T02:32:44;3.0;3.0;
47934;PMS5003;33704;43.592;-79.628;2024-03-02T02:33:16;3.0;3.0;
47934;PMS5003;33704;43.592;-79.628;2024-03-02T02:33:48;4.0;3.0;
47934;PMS5003;33704;43.592;-79.628;2024-03-02T02:34:19;3.0;3.0;
47934;PMS5003;33704;43.592;-79.628;2024-03-02T02:34:52;4.0;4.0;
47934;PMS5003;33704;43.592;-79.628;2024-03-02T02:35:24;4.0;3.0;
47934;PMS5003;33704;43.592;-79.628;2024-03-02T02:35:56;6.0;4.0;
47934;PMS5003;33704;43.592;-79.628;2024-03-02T02:36:28;4.0;4.0;
47934;PMS5003;33704;43.592;-79.628;2024-03-02T02:36:59;3.0;3.0;
47934;PMS5003;33704;43.592;-79.628;2024-03-02T02:37:33;4.0;4.0;
47934;PMS5003;33704;43.592;-79.628;2024-03-02T02:38:05;3.0;3.0;
47934;PMS5003;33704;43.592;-79.628;2024-03-02T02:38:38;4.0;3.0;
47934;PMS5003;33704;43.592;-79.628;2024-03-02T02:39:15;3.0;3.0;
47934;PMS5003;33704;43.592;-79.628;2024-03-02T02:39:49;1.0;1.0;
47934;PMS5003;33704;43.592;-79.628;2024-03-02T02:40:22;2.0;2.0;
47934;PMS5003;33704;43.592;-79.628;2024-03-02T02:40:54;3.0;3.0;
47934;PMS5003;33704;43.592;-79.628;2024-03-02T02:41:26;4.0;4.0;
47934;PMS5003;33704;43.592;-79.628;2024-03-02T02:41:58;6.0;4.0;
47934;PMS5003;33704;43.592;-79.628;2024-03-02T02:42:30;4.0;4.0;
47934;PMS5003;33704;43.592;-79.628;2024-03-02T02:43:03;1.0;1.0;
47934;PMS5003;33704;43.592;-79.628;2024-03-02T02:43:35;3.0;3.0;
47934;PMS5003;33704;43.592;-79.628;2024-03-02T02:44:07;3.0;3.0;
47934;PMS5003;33704;43.592;-79.628;2024-03-02T02:44:39;4.0;4.0;
47934;PMS5003;33704;43.592;-79.628;2024-03-02T02:45:12;2.0;2.0;
47934;PMS5003;33704;43.592;-79.628;2024-03-02T02:45:44;2.0;2.0;
47934;PMS5003;33704;43.592;-79.628;2024-03-02T02:46:16;4.0;4.0;
47934;PMS5003;33704;43.592;-79.628;2024-03-02T02:46:48;5.0;4.0;
47934;PMS5003;33704;43.592;-79.628;2024-03-02T02:47:20;5.0;4.0;
47934;PMS5003;33704;43.592;-79.628;2024-03-02T02:47:53;4.0;4.0;
47934;PMS5003;33704;43.592;-79.628;2024-03-02T02:48:25;3.0;2.0;
47934;PMS5003;33704;43.592;-79.628;2024-03-02T02:48:56;3.0;3.0;
47934;PMS5003;33704;43.592;-79.628;2024-03-02T02:49:28;3.0;3.0;
47934;PMS5003;33704;43.592;-79.628;2024-03-02T02:50:02;3.0;3.0;
47934;PMS5003;33704;43.592;-79.628;2024-03-02T02:50:37;3.0;3.0;
47934;PMS5003;33704;43.592;-79.628;2024-03-02T02:51:09;5.0;4.0;
47934;PMS5003;33704;43.592;-79.628;2024-03-02T02:51:42;4.0;4.0;
47934;PMS5003;33704;43.592;-79.628;2024-03-02T02:52:13;3.0;3.0;
47934;PMS5003;33704;43.592;-79.628;2024-03-02T02:52:45;3.0;3.0;
47934;PMS5003;33704;43.592;-79.628;2024-03-02T02:53:17;4.0;4.0;
47934;PMS5003;33704;43.592;-79.628;2024-03-02T02:53:49;6.0;5.0;
47934;PMS5003;33704;43.592;-79.628;2024-03-02T02:54:20;3.0;3.0;
47934;PMS5003;33704;43.592;-79.628;2024-03-02T02:54:52;3.0;3.0;
47934;PMS5003;33704;43.592;-79.628;2024-03-02T02:55:25;3.0;3.0;
47934;PMS5003;33704;43.592;-79.628;2024-03-02T02:55:57;3.0;3.0;
47934;PMS5003;33704;43.592;-79.628;2024-03-02T02:56:29;3.0;3.0;
47934;PMS5003;33704;43.592;-79.628;2024-03-02T02:57:05;3.0;3.0;
47934;PMS5003;33704;43.592;-79.628;2024-03-02T02:57:37;4.0;4.0;
47934;PMS5003;33704;43.592;-79.628;2024-03-02T02:58:11;3.0;3.0;
47934;PMS5003;33704;43.592;-79.628;2024-03-02T02:58:43;3.0;3.0;
47934;PMS5003;33704;43.592;-79.628;2024-03-02T02:59:15;4.0;4.0;
47934;PMS5003;33704;43.592;-79.628;2024-03-02T02:59:47;3.0;3.0;
47934;PMS5003;33704;43.592;-79.628;2024-03-02T03:00:20;3.0;3.0;
47934;PMS5003;33704;43.592;-79.628;2024-03-02T03:00:52;5.0;5.0;
47934;PMS5003;33704;43.592;-79.628;2024-03-02T03:01:24;3.0;3.0;
47934;PMS5003;33704;43.592;-79.628;2024-03-02T03:01:56;5.0;5.0;
47934;PMS5003;33704;43.592;-79.628;2024-03-02T03:02:27;4.0;3.0;
47934;PMS5003;33704;43.592;-79.628;2024-03-02T03:02:59;4.0;4.0;
47934;PMS5003;33704;43.592;-79.628;2024-03-02T03:03:31;3.0;3.0;
47934;PMS5003;33704;43.592;-79.628;2024-03-02T03:04:04;5.0;5.0;
47934;PMS5003;33704;43.592;-79.628;2024-03-02T03:04:36;4.0;4.0;
47934;PMS5003;33704;43.592;-79.628;2024-03-02T03:05:11;2.0;2.0;
47934;PMS5003;33704;43.592;-79.628;2024-03-02T03:05:44;5.0;5.0;
47934;PMS5003;33704;43.592;-79.628;2024-03-02T03:06:16;2.0;2.0;
47934;PMS5003;33704;43.592;-79.628;2024-03-02T03:06:48;3.0;3.0;
47934;PMS5003;33704;43.592;-79.628;2024-03-02T03:07:20;3.0;3.0;
47934;PMS5003;33704;43.592;-79.628;2024-03-02T03:07:53;4.0;3.0;
47934;PMS5003;33704;43.592;-79.628;2024-03-02T03:08:24;3.0;3.0;
47934;PMS5003;33704;43.592;-79.628;2024-03-02T03:08:56;2.0;2.0;
47934;PMS5003;33704;43.592;-79.628;2024-03-02T03:09:28;4.0;4.0;
47934;PMS5003;33704;43.592;-79.628;2024-03-02T03:10:00;3.0;3.0;
47934;PMS5003;33704;43.592;-79.628;2024-03-02T03:10:34;2.0;2.0;
47934;PMS5003;33704;43.592;-79.628;2024-03-02T03:11:06;9.0;7.0;
47934;PMS5003;33704;43.592;-79.628;2024-03-02T03:11:39;15.0;12.0;
47934;PMS5003;33704;43.592;-79.628;2024-03-02T03:12:13;6.0;5.0;
47934;PMS5003;33704;43.592;-79.628;2024-03-02T03:12:45;3.0;3.0;
47934;PMS5003;33704;43.592;-79.628;2024-03-02T03:13:17;3.0;3.0;
47934;PMS5003;33704;43.592;-79.628;2024-03-02T03:13:49;4.0;4.0;
47934;PMS5003;33704;43.592;-79.628;2024-03-02T03:14:21;6.0;5.0;
47934;PMS5003;33704;43.592;-79.628;2024-03-02T03:14:53;5.0;5.0;
47934;PMS5003;33704;43.592;-79.628;2024-03-02T03:15:25;5.0;5.0;
47934;PMS5003;33704;43.592;-79.628;2024-03-02T03:15:57;7.0;7.0;
47934;PMS5003;33704;43.592;-79.628;2024-03-02T03:16:29;4.0;4.0;
47934;PMS5003;33704;43.592;-79.628;2024-03-02T03:17:03;4.0;4.0;
47934;PMS5003;33704;43.592;-79.628;2024-03-02T03:17:35;3.0;3.0;
47934;PMS5003;33704;43.592;-79.628;2024-03-02T03:18:07;2.0;2.0;
47934;PMS5003;33704;43.592;-79.628;2024-03-02T03:18:39;4.0;4.0;
47934;PMS5003;33704;43.592;-79.628;2024-03-02T03:19:11;4.0;4.0;
47934;PMS5003;33704;43.592;-79.628;2024-03-02T03:19:43;5.0;3.0;
47934;PMS5003;33704;43.592;-79.628;2024-03-02T03:20:15;7.0;5.0;
47934;PMS5003;33704;43.592;-79.628;2024-03-02T03:20:47;4.0;4.0;
47934;PMS5003;33704;43.592;-79.628;2024-03-02T03:21:19;4.0;4.0;
47934;PMS5003;33704;43.592;-79.628;2024-03-02T03:21:51;6.0;6.0;
47934;PMS5003;33704;43.592;-79.628;2024-03-02T03:22:23;3.0;3.0;
47934;PMS5003;33704;43.592;-79.628;2024-03-02T03:22:55;4.0;4.0;
47934;PMS5003;33704;43.592;-79.628;2024-03-02T03:23:27;5.0;5.0;
47934;PMS5003;33704;43.592;-79.628;2024-03-02T03:23:59;4.0;4.0;
47934;PMS5003;33704;43.592;-79.628;2024-03-02T03:24:32;2.0;2.0;
47934;PMS5003;33704;43.592;-79.628;2024-03-02T03:25:05;3.0;3.0;